createdAt,value
2019-03-09T00:00:48.405Z,6.61
2019-03-09T00:03:17.867Z,6.79
2019-03-09T00:05:48.075Z,6.81
2019-03-09T00:08:17.827Z,6.74
2019-03-09T00:10:47.324Z,6.82
2019-03-09T00:13:16.843Z,6.89
2019-03-09T00:15:46.483Z,6.85
2019-03-09T00:18:16.515Z,6.89
2019-03-09T00:20:46.044Z,6.92
2019-03-09T00:23:23.007Z,6.96
2019-03-09T00:26:26.639Z,7.03
2019-03-09T00:29:14.780Z,7.02
2019-03-09T00:32:02.941Z,7.05
2019-03-09T00:34:32.384Z,7.09
2019-03-09T00:37:01.576Z,7.15
2019-03-09T00:39:31.300Z,7.27
2019-03-09T00:42:01.257Z,7.14
2019-03-09T00:44:32.312Z,7.17
2019-03-09T00:47:02.419Z,7.21
2019-03-09T00:49:35.577Z,7.25
2019-03-09T00:52:06.725Z,7.40
2019-03-09T00:54:37.029Z,7.32
2019-03-09T00:57:07.329Z,7.31
2019-03-09T00:59:38.053Z,7.33
2019-03-09T01:02:07.875Z,7.42
2019-03-09T01:04:37.844Z,7.34
2019-03-09T01:07:08.346Z,7.35
2019-03-09T01:09:38.618Z,7.35
2019-03-09T01:12:07.783Z,7.52
2019-03-09T01:14:37.758Z,7.53
2019-03-09T01:17:07.205Z,7.64
2019-03-09T01:19:36.377Z,7.52
2019-03-09T01:22:06.700Z,7.62
2019-03-09T01:24:35.887Z,7.64
2019-03-09T01:27:06.193Z,7.68
2019-03-09T01:29:37.190Z,7.62
2019-03-09T01:32:06.661Z,7.68
2019-03-09T01:34:36.403Z,7.57
2019-03-09T01:37:06.665Z,7.59
2019-03-09T01:39:40.381Z,7.53
2019-03-09T01:42:09.833Z,7.51
2019-03-09T01:44:40.055Z,7.52
2019-03-09T01:47:09.784Z,7.48
2019-03-09T01:49:40.545Z,7.44
2019-03-09T01:52:09.706Z,7.37
2019-03-09T01:54:38.879Z,7.32
2019-03-09T01:57:09.085Z,7.28
2019-03-09T01:59:42.873Z,7.33
2019-03-09T02:02:12.843Z,7.23
2019-03-09T02:04:42.684Z,7.35
2019-03-09T02:07:12.893Z,7.28
2019-03-09T02:09:42.083Z,7.31
2019-03-09T02:12:12.598Z,7.25
2019-03-09T02:14:42.535Z,7.20
2019-03-09T02:17:11.991Z,7.16
2019-03-09T02:19:41.436Z,7.20
2019-03-09T02:22:10.987Z,7.17
2019-03-09T02:24:40.157Z,7.11
2019-03-09T02:27:09.864Z,7.07
2019-03-09T02:29:40.681Z,7.08
2019-03-09T02:32:11.015Z,7.11
2019-03-09T02:34:41.274Z,7.18
2019-03-09T02:37:11.334Z,7.16
2019-03-09T02:39:47.849Z,7.22
2019-03-09T02:42:17.029Z,7.18
2019-03-09T02:44:46.743Z,7.15
2019-03-09T02:47:16.504Z,7.21
2019-03-09T02:49:45.940Z,7.15
2019-03-09T02:52:15.393Z,7.06
2019-03-09T02:54:44.856Z,7.00
2019-03-09T02:57:18.816Z,7.11
2019-03-09T02:59:47.967Z,7.06
2019-03-09T03:02:26.659Z,7.07
2019-03-09T03:04:56.069Z,7.05
2019-03-09T03:07:26.433Z,6.84
2019-03-09T03:09:58.733Z,6.80
2019-03-09T03:12:31.473Z,6.80
2019-03-09T03:15:00.636Z,6.66
2019-03-09T03:17:30.088Z,6.66
2019-03-09T03:19:59.246Z,6.69
2019-03-09T03:22:28.799Z,6.66
2019-03-09T03:24:58.533Z,6.59
2019-03-09T03:27:28.520Z,6.58
2019-03-09T03:29:58.230Z,6.61
2019-03-09T03:32:33.155Z,6.65
2019-03-09T03:35:03.145Z,6.65
2019-03-09T03:37:32.350Z,6.56
2019-03-09T03:40:01.618Z,6.49
2019-03-09T03:42:30.808Z,6.41
2019-03-09T03:44:59.959Z,6.38
2019-03-09T03:47:31.015Z,6.37
2019-03-09T03:50:00.387Z,6.35
2019-03-09T03:52:30.182Z,6.35
2019-03-09T03:55:00.546Z,6.31
2019-03-09T03:57:29.671Z,6.28
2019-03-09T03:59:59.301Z,6.27
2019-03-09T04:02:28.892Z,6.18
2019-03-09T04:04:58.338Z,6.14
2019-03-09T04:07:27.515Z,6.10
2019-03-09T04:09:56.960Z,6.16
2019-03-09T04:12:26.167Z,6.12
2019-03-09T04:14:55.349Z,6.23
2019-03-09T04:17:24.535Z,6.16
2019-03-09T04:19:53.711Z,6.17
2019-03-09T04:22:23.297Z,6.22
2019-03-09T04:24:53.079Z,6.14
2019-03-09T04:27:22.225Z,6.11
2019-03-09T04:29:51.395Z,6.05
2019-03-09T04:32:20.568Z,6.07
2019-03-09T04:34:50.099Z,6.12
2019-03-09T04:37:19.296Z,6.03
2019-03-09T04:39:48.454Z,6.06
2019-03-09T04:42:17.901Z,6.01
2019-03-09T04:44:48.328Z,6.07
2019-03-09T04:47:17.516Z,6.07
2019-03-09T04:49:46.979Z,6.13
2019-03-09T04:52:16.722Z,6.17
2019-03-09T04:54:45.903Z,6.20
2019-03-09T04:57:15.080Z,6.18
2019-03-09T04:59:44.553Z,6.19
2019-03-09T05:02:14.009Z,6.20
2019-03-09T05:04:56.554Z,6.25
2019-03-09T05:07:52.214Z,6.24
2019-03-09T05:10:40.956Z,6.31
2019-03-09T05:13:13.906Z,6.32
2019-03-09T05:15:44.567Z,6.28
2019-03-09T05:18:14.940Z,6.32
2019-03-09T05:20:44.660Z,6.34
2019-03-09T05:23:14.195Z,6.27
2019-03-09T05:25:45.417Z,6.23
2019-03-09T05:28:15.383Z,6.27
2019-03-09T05:30:45.981Z,6.31
2019-03-09T05:33:15.415Z,6.40
2019-03-09T05:35:44.626Z,6.44
2019-03-09T05:38:15.911Z,6.49
2019-03-09T05:40:45.448Z,6.54
2019-03-09T05:43:14.588Z,6.51
2019-03-09T05:45:44.101Z,6.48
2019-03-09T05:48:13.539Z,6.50
2019-03-09T05:50:43.519Z,6.55
2019-03-09T05:53:15.403Z,6.53
2019-03-09T05:55:47.524Z,6.60
2019-03-09T05:58:16.975Z,6.58
2019-03-09T06:00:47.920Z,6.63
2019-03-09T06:03:17.877Z,6.54
2019-03-09T06:05:52.823Z,6.58
2019-03-09T06:08:22.676Z,6.63
2019-03-09T06:10:53.499Z,6.65
2019-03-09T06:13:22.655Z,6.80
2019-03-09T06:15:51.956Z,6.87
2019-03-09T06:18:21.248Z,6.84
2019-03-09T06:20:50.531Z,6.93
2019-03-09T06:23:21.130Z,7.02
2019-03-09T06:25:50.320Z,7.05
2019-03-09T06:28:19.885Z,7.03
2019-03-09T06:30:51.506Z,7.04
2019-03-09T06:33:42.083Z,7.06
2019-03-09T06:36:41.386Z,7.11
2019-03-09T06:39:18.508Z,7.20
2019-03-09T06:42:10.882Z,7.23
2019-03-09T06:44:40.064Z,7.28
2019-03-09T06:47:09.539Z,7.32
2019-03-09T06:49:38.695Z,7.36
2019-03-09T06:52:07.885Z,7.39
2019-03-09T06:54:37.338Z,7.36
2019-03-09T06:57:14.091Z,7.46
2019-03-09T06:59:43.200Z,7.47
2019-03-09T07:02:17.798Z,7.47
2019-03-09T07:04:48.722Z,7.52
2019-03-09T07:07:24.186Z,7.58
2019-03-09T07:09:53.900Z,7.56
2019-03-09T07:12:28.174Z,7.59
2019-03-09T07:15:18.778Z,7.60
2019-03-09T07:17:48.741Z,7.63
2019-03-09T07:20:18.156Z,7.71
2019-03-09T07:22:47.926Z,7.64
2019-03-09T07:25:17.085Z,7.62
2019-03-09T07:27:56.158Z,7.70
2019-03-09T07:30:25.732Z,7.70
2019-03-09T07:32:54.938Z,7.76
2019-03-09T07:35:24.116Z,7.81
2019-03-09T07:37:53.338Z,7.89
2019-03-09T07:40:22.506Z,8.00
2019-03-09T07:42:55.600Z,8.15
2019-03-09T07:45:24.771Z,8.15
2019-03-09T07:47:53.957Z,8.23
2019-03-09T07:50:23.436Z,8.34
2019-03-09T07:52:54.929Z,8.40
2019-03-09T07:55:27.122Z,8.48
2019-03-09T07:58:04.631Z,8.50
2019-03-09T08:00:34.049Z,8.60
2019-03-09T08:03:04.314Z,8.70
2019-03-09T08:05:33.580Z,8.79
2019-03-09T08:08:03.019Z,8.87
2019-03-09T08:10:33.255Z,8.94
2019-03-09T08:13:03.485Z,8.93
2019-03-09T08:15:34.974Z,8.87
2019-03-09T08:18:04.131Z,9.01
2019-03-09T08:20:34.161Z,9.02
2019-03-09T08:23:03.602Z,8.96
2019-03-09T08:25:35.488Z,9.00
2019-03-09T08:28:06.755Z,9.08
2019-03-09T08:30:36.785Z,9.08
2019-03-09T08:33:08.400Z,9.15
2019-03-09T08:35:40.557Z,9.28
2019-03-09T08:38:10.836Z,9.29
2019-03-09T08:40:42.843Z,9.35
2019-03-09T08:43:14.048Z,9.43
2019-03-09T08:45:43.507Z,9.44
2019-03-09T08:48:13.801Z,9.55
2019-03-09T08:50:43.480Z,9.55
2019-03-09T08:53:13.173Z,9.59
2019-03-09T08:55:43.489Z,9.63
2019-03-09T08:58:13.514Z,9.57
2019-03-09T09:00:45.794Z,9.65
2019-03-09T09:03:15.510Z,9.69
2019-03-09T09:05:47.507Z,9.76
2019-03-09T09:08:16.988Z,9.79
2019-03-09T09:10:47.183Z,9.72
2019-03-09T09:13:16.986Z,9.87
2019-03-09T09:15:46.146Z,9.89
2019-03-09T09:18:15.605Z,9.92
2019-03-09T09:20:46.135Z,9.92
2019-03-09T09:23:16.122Z,10.03
2019-03-09T09:25:45.622Z,10.15
2019-03-09T09:28:16.958Z,10.04
2019-03-09T09:30:47.012Z,10.04
2019-03-09T09:33:20.365Z,10.14
2019-03-09T09:35:50.669Z,10.16
2019-03-09T09:38:22.220Z,10.24
2019-03-09T09:40:53.964Z,10.21
2019-03-09T09:43:23.718Z,10.22
2019-03-09T09:45:53.678Z,10.24
2019-03-09T09:48:24.846Z,10.24
2019-03-09T09:50:54.320Z,10.31
2019-03-09T09:53:23.734Z,10.42
2019-03-09T09:55:54.362Z,10.38
2019-03-09T09:58:23.549Z,10.39
2019-03-09T10:00:54.386Z,10.23
2019-03-09T10:03:26.292Z,10.27
2019-03-09T10:05:55.744Z,10.32
2019-03-09T10:08:28.325Z,10.22
2019-03-09T10:10:58.337Z,10.26
2019-03-09T10:13:32.837Z,10.30
2019-03-09T10:16:02.328Z,10.24
2019-03-09T10:18:31.514Z,10.22
2019-03-09T10:21:00.697Z,10.25
2019-03-09T10:23:30.150Z,10.30
2019-03-09T10:26:00.642Z,10.32
2019-03-09T10:28:29.849Z,10.37
2019-03-09T10:30:59.566Z,10.37
2019-03-09T10:33:29.225Z,10.40
2019-03-09T10:35:58.967Z,10.51
2019-03-09T10:38:28.458Z,10.43
2019-03-09T10:40:57.851Z,10.60
2019-03-09T10:43:27.456Z,10.57
2019-03-09T10:45:59.263Z,10.64
2019-03-09T10:48:29.555Z,10.67
2019-03-09T10:51:03.051Z,10.79
2019-03-09T10:53:32.315Z,10.82
2019-03-09T10:56:01.526Z,10.82
2019-03-09T10:58:30.697Z,10.68
2019-03-09T11:01:01.378Z,10.56
2019-03-09T11:03:30.546Z,10.76
2019-03-09T11:05:59.725Z,10.70
2019-03-09T11:08:29.154Z,10.72
2019-03-09T11:11:00.352Z,10.69
2019-03-09T11:13:29.511Z,10.76
2019-03-09T11:15:58.802Z,10.69
2019-03-09T11:18:27.979Z,10.65
2019-03-09T11:20:57.426Z,10.74
2019-03-09T11:23:26.634Z,10.79
2019-03-09T11:25:55.839Z,10.83
2019-03-09T11:28:25.602Z,10.83
2019-03-09T11:30:54.803Z,10.79
2019-03-09T11:33:24.239Z,10.72
2019-03-09T11:35:53.586Z,10.84
2019-03-09T11:38:26.092Z,10.86
2019-03-09T11:40:59.707Z,10.81
2019-03-09T11:43:28.103Z,10.95
2019-03-09T11:45:58.356Z,10.87
2019-03-09T11:48:30.014Z,10.84
2019-03-09T11:51:01.218Z,10.94
2019-03-09T11:53:30.397Z,10.97
2019-03-09T11:56:01.152Z,10.96
2019-03-09T11:58:31.731Z,10.96
2019-03-09T12:01:00.914Z,11.15
2019-03-09T12:03:30.251Z,11.14
2019-03-09T12:06:00.256Z,11.24
2019-03-09T12:08:30.008Z,11.16
2019-03-09T12:11:00.603Z,11.33
2019-03-09T12:13:29.785Z,11.40
2019-03-09T12:15:59.450Z,11.52
2019-03-09T12:18:28.916Z,11.51
2019-03-09T12:20:58.081Z,11.55
2019-03-09T12:23:27.461Z,11.56
2019-03-09T12:25:57.635Z,11.52
2019-03-09T12:28:29.333Z,11.61
2019-03-09T12:30:59.956Z,11.57
2019-03-09T12:33:30.262Z,11.57
2019-03-09T12:36:00.149Z,11.60
2019-03-09T12:38:29.864Z,11.63
2019-03-09T12:40:59.542Z,11.63
2019-03-09T12:43:31.044Z,11.53
2019-03-09T12:46:01.383Z,11.64
2019-03-09T12:48:34.842Z,11.61
2019-03-09T12:51:07.655Z,11.63
2019-03-09T12:53:37.211Z,11.72
2019-03-09T12:56:06.411Z,11.84
2019-03-09T12:58:37.390Z,12.09
2019-03-09T13:01:06.919Z,12.24
2019-03-09T13:03:40.198Z,12.17
2019-03-09T13:06:11.504Z,12.01
2019-03-09T13:08:41.999Z,12.18
2019-03-09T13:11:14.248Z,12.27
2019-03-09T13:13:45.894Z,12.55
2019-03-09T13:16:20.490Z,12.68
2019-03-09T13:18:52.064Z,12.74
2019-03-09T13:21:23.181Z,12.47
2019-03-09T13:23:56.290Z,12.91
2019-03-09T13:26:26.449Z,12.61
2019-03-09T13:28:55.939Z,12.95
2019-03-09T13:31:25.907Z,12.82
2019-03-09T13:33:55.684Z,12.80
2019-03-09T13:36:25.794Z,12.86
2019-03-09T13:38:55.553Z,12.86
2019-03-09T13:41:25.496Z,12.43
2019-03-09T13:43:59.645Z,12.37
2019-03-09T13:46:29.363Z,12.28
2019-03-09T13:48:59.414Z,12.30
2019-03-09T13:51:28.639Z,12.29
2019-03-09T13:53:58.022Z,12.25
2019-03-09T13:56:28.500Z,12.68
2019-03-09T13:58:57.985Z,12.73
2019-03-09T14:01:28.047Z,12.38
2019-03-09T14:04:00.672Z,12.33
2019-03-09T14:06:42.334Z,12.47
2019-03-09T14:09:14.642Z,12.50
2019-03-09T14:11:43.857Z,12.61
2019-03-09T14:14:13.765Z,12.63
2019-03-09T14:16:43.997Z,13.00
2019-03-09T14:19:14.575Z,12.77
2019-03-09T14:21:46.015Z,12.59
2019-03-09T14:24:18.376Z,12.89
2019-03-09T14:26:53.287Z,12.82
2019-03-09T14:29:25.121Z,12.79
2019-03-09T14:31:55.325Z,12.53
2019-03-09T14:34:25.018Z,12.50
2019-03-09T14:36:54.389Z,12.36
2019-03-09T14:39:24.669Z,12.10
2019-03-09T14:41:54.805Z,11.87
2019-03-09T14:44:25.363Z,11.65
2019-03-09T14:46:59.255Z,11.43
2019-03-09T14:49:29.111Z,11.39
2019-03-09T14:51:59.195Z,11.24
2019-03-09T14:54:31.484Z,11.08
2019-03-09T14:57:04.368Z,11.08
2019-03-09T14:59:35.113Z,10.80
2019-03-09T15:02:05.103Z,10.74
2019-03-09T15:04:37.822Z,10.74
2019-03-09T15:07:14.051Z,10.66
2019-03-09T15:09:46.016Z,10.72
2019-03-09T15:12:15.233Z,10.55
2019-03-09T15:14:44.872Z,10.81
2019-03-09T15:17:14.068Z,11.02
2019-03-09T15:19:43.242Z,11.27
2019-03-09T15:22:12.707Z,11.37
2019-03-09T15:24:42.213Z,11.42
2019-03-09T15:27:13.173Z,11.44
2019-03-09T15:29:42.906Z,11.36
2019-03-09T15:32:15.537Z,10.85
2019-03-09T15:34:44.832Z,10.66
2019-03-09T15:37:14.314Z,10.76
2019-03-09T15:39:44.425Z,11.06
2019-03-09T15:42:13.896Z,11.44
2019-03-09T15:44:43.664Z,11.74
2019-03-09T15:47:13.767Z,11.64
2019-03-09T15:49:43.351Z,12.02
2019-03-09T15:52:12.527Z,11.74
2019-03-09T15:54:41.940Z,11.49
2019-03-09T15:57:11.596Z,11.40
2019-03-09T15:59:41.805Z,11.25
2019-03-09T16:02:13.300Z,11.26
2019-03-09T16:04:43.580Z,11.10
2019-03-09T16:07:12.764Z,10.57
2019-03-09T16:09:46.222Z,10.12
2019-03-09T16:12:15.415Z,9.96
2019-03-09T16:14:44.932Z,9.80
2019-03-09T16:17:14.208Z,9.70
2019-03-09T16:19:43.705Z,9.54
2019-03-09T16:22:13.119Z,9.48
2019-03-09T16:24:43.096Z,9.60
2019-03-09T16:27:13.891Z,9.80
2019-03-09T16:29:44.235Z,9.63
2019-03-09T16:32:13.413Z,9.51
2019-03-09T16:34:43.949Z,9.43
2019-03-09T16:37:13.568Z,9.46
2019-03-09T16:39:42.820Z,9.60
2019-03-09T16:42:12.014Z,9.71
2019-03-09T16:44:41.202Z,9.81
2019-03-09T16:47:11.187Z,9.90
2019-03-09T16:49:40.548Z,9.99
2019-03-09T16:52:11.142Z,10.04
2019-03-09T16:54:40.985Z,10.25
2019-03-09T16:57:11.646Z,10.49
2019-03-09T16:59:44.240Z,10.50
2019-03-09T17:02:12.938Z,10.70
2019-03-09T17:04:42.127Z,10.79
2019-03-09T17:07:11.354Z,10.87
2019-03-09T17:09:41.996Z,10.95
2019-03-09T17:12:11.201Z,10.79
2019-03-09T17:14:40.727Z,10.98
2019-03-09T17:17:09.989Z,11.06
2019-03-09T17:19:41.056Z,10.98
2019-03-09T17:22:10.254Z,10.89
2019-03-09T17:24:39.413Z,10.91
2019-03-09T17:27:09.424Z,10.80
2019-03-09T17:29:39.577Z,10.74
2019-03-09T17:32:08.787Z,10.58
2019-03-09T17:34:40.121Z,10.39
2019-03-09T17:37:09.762Z,10.09
2019-03-09T17:39:39.183Z,9.77
2019-03-09T17:42:08.367Z,9.51
2019-03-09T17:44:37.546Z,9.22
2019-03-09T17:47:07.041Z,9.12
2019-03-09T17:49:37.662Z,9.11
2019-03-09T17:52:06.848Z,9.15
2019-03-09T17:54:36.034Z,9.14
2019-03-09T17:57:05.684Z,9.23
2019-03-09T17:59:35.962Z,9.30
2019-03-09T18:02:06.551Z,9.30
2019-03-09T18:04:36.374Z,9.26
2019-03-09T18:07:25.195Z,9.34
2019-03-09T18:09:57.553Z,9.37
2019-03-09T18:12:26.996Z,9.32
2019-03-09T18:14:56.578Z,9.44
2019-03-09T18:17:25.773Z,9.54
2019-03-09T18:22:46.682Z,9.53
2019-03-09T18:25:15.875Z,9.51
2019-03-09T18:27:45.066Z,9.43
2019-03-09T18:30:16.203Z,9.27
2019-03-09T18:32:47.990Z,9.05
2019-03-09T18:35:18.224Z,8.80
2019-03-09T18:37:48.796Z,8.72
2019-03-09T18:40:18.201Z,8.62
2019-03-09T18:42:47.393Z,8.49
2019-03-09T18:45:18.003Z,8.45
2019-03-09T18:47:48.001Z,8.43
2019-03-09T18:50:18.710Z,8.33
2019-03-09T18:52:48.257Z,8.28
2019-03-09T18:55:19.743Z,8.27
2019-03-09T18:57:49.076Z,8.23
2019-03-09T19:00:18.722Z,8.23
2019-03-09T19:02:48.868Z,8.22
2019-03-09T19:05:18.031Z,8.26
2019-03-09T19:07:47.728Z,8.24
2019-03-09T19:10:17.273Z,8.25
2019-03-09T19:12:46.491Z,8.21
2019-03-09T19:15:15.913Z,8.21
2019-03-09T19:17:45.064Z,8.20
2019-03-09T19:20:14.749Z,8.11
2019-03-09T19:22:44.163Z,8.16
2019-03-09T19:25:14.680Z,8.09
2019-03-09T19:27:44.854Z,8.11
2019-03-09T19:30:15.288Z,8.09
2019-03-09T19:32:45.147Z,8.17
2019-03-09T19:35:14.448Z,8.16
2019-03-09T19:37:43.710Z,8.15
2019-03-09T19:40:13.926Z,8.18
2019-03-09T19:42:43.209Z,8.20
2019-03-09T19:45:13.311Z,8.12
2019-03-09T19:47:42.591Z,8.14
2019-03-09T19:50:13.745Z,8.10
2019-03-09T19:52:43.012Z,8.02
2019-03-09T19:55:12.578Z,7.96
2019-03-09T19:57:52.089Z,7.90
2019-03-09T20:00:21.281Z,8.05
2019-03-09T20:02:50.433Z,7.90
2019-03-09T20:05:20.053Z,7.90
2019-03-09T20:07:49.947Z,7.90
2019-03-09T20:10:22.472Z,7.72
2019-03-09T20:12:52.244Z,7.86
2019-03-09T20:15:25.535Z,7.88
2019-03-09T20:18:01.080Z,7.90
2019-03-09T20:20:30.474Z,7.90
2019-03-09T20:22:59.826Z,7.92
2019-03-09T20:25:30.426Z,7.91
2019-03-09T20:27:59.623Z,7.91
2019-03-09T20:30:33.478Z,7.95
2019-03-09T20:33:03.055Z,7.93
2019-03-09T20:35:36.530Z,7.91
2019-03-09T20:38:05.760Z,7.95
2019-03-09T20:40:35.863Z,7.83
2019-03-09T20:43:05.546Z,7.91
2019-03-09T20:45:35.237Z,7.89
2019-03-09T20:48:08.454Z,7.96
2019-03-09T20:50:41.424Z,7.96
2019-03-09T20:53:11.300Z,7.92
2019-03-09T20:55:40.866Z,7.78
2019-03-09T20:58:10.935Z,7.71
2019-03-09T21:00:40.381Z,7.78
2019-03-09T21:03:11.022Z,7.87
2019-03-09T21:05:40.380Z,7.87
2019-03-09T21:08:11.512Z,7.84
2019-03-09T21:11:04.161Z,7.80
2019-03-09T21:13:33.530Z,7.93
2019-03-09T21:16:03.119Z,8.04
2019-03-09T21:18:34.396Z,8.10
2019-03-09T21:21:17.331Z,8.03
2019-03-09T21:23:46.884Z,8.03
2019-03-09T21:26:17.197Z,7.87
2019-03-09T21:28:47.986Z,7.88
2019-03-09T21:31:17.773Z,7.90
2019-03-09T21:33:47.264Z,7.86
2019-03-09T21:36:16.461Z,7.93
2019-03-09T21:38:46.018Z,7.92
2019-03-09T21:41:15.964Z,7.80
2019-03-09T21:43:45.191Z,7.83
2019-03-09T21:46:14.634Z,7.95
2019-03-09T21:48:46.980Z,7.88
2019-03-09T21:51:16.421Z,7.92
2019-03-09T21:53:45.640Z,7.96
2019-03-09T21:56:14.810Z,7.92
2019-03-09T21:58:44.465Z,8.02
2019-03-09T22:01:14.678Z,8.09
2019-03-09T22:03:45.060Z,8.15
2019-03-09T22:06:14.774Z,8.08
2019-03-09T22:08:45.215Z,8.08
2019-03-09T22:11:14.473Z,8.04
2019-03-09T22:13:43.774Z,7.97
2019-03-09T22:16:13.759Z,8.03
2019-03-09T22:18:42.964Z,8.04
2019-03-09T22:21:12.523Z,7.93
2019-03-09T22:23:44.357Z,8.04
2019-03-09T22:26:13.919Z,8.11
2019-03-09T22:28:43.742Z,8.03
2019-03-09T22:31:13.196Z,8.08
2019-03-09T22:33:43.396Z,8.06
2019-03-09T22:36:12.909Z,8.04
2019-03-09T22:38:43.193Z,8.11
2019-03-09T22:41:13.661Z,8.15
2019-03-09T22:43:43.167Z,8.11
2019-03-09T22:46:13.161Z,8.16
2019-03-09T22:48:42.596Z,8.14
2019-03-09T22:51:15.451Z,8.12
2019-03-09T22:53:45.487Z,8.19
2019-03-09T22:56:14.681Z,8.16
2019-03-09T22:58:44.204Z,8.18
2019-03-09T23:01:13.467Z,8.17
2019-03-09T23:03:42.628Z,8.13
2019-03-09T23:06:12.894Z,7.99
2019-03-09T23:08:43.255Z,7.97
2019-03-09T23:11:17.050Z,7.95
2019-03-09T23:13:46.981Z,7.90
2019-03-09T23:16:16.498Z,7.90
2019-03-09T23:18:46.250Z,7.90
2019-03-09T23:21:15.727Z,7.85
2019-03-09T23:23:44.978Z,7.89
2019-03-09T23:26:15.035Z,7.78
2019-03-09T23:28:48.671Z,7.89
2019-03-09T23:31:18.143Z,7.87
2019-03-09T23:33:47.686Z,7.89
2019-03-09T23:36:17.438Z,7.89
2019-03-09T23:38:46.634Z,7.86
2019-03-09T23:41:16.606Z,7.89
2019-03-09T23:43:47.230Z,7.87
2019-03-09T23:46:16.418Z,7.86
2019-03-09T23:48:46.676Z,7.83
2019-03-09T23:51:17.667Z,7.71
2019-03-09T23:53:47.060Z,7.60
2019-03-09T23:56:16.222Z,7.60
2019-03-09T23:58:45.758Z,7.67
